Time,TemperatureF,DewpointF,PressureIn,WindDirection,WindDirectionDegrees,WindSpeedMPH,WindSpeedGustMPH,Humidity,HourlyPrecipIn,Conditions,Clouds,dailyrainin,SolarRadiationWatts/m^2,SoftwareType,DateUTC
2013-04-12 00:00:00,32.0,31.0,-100.00,ENE,67,10.0,-999.0,96,-99.99,,,-99.99,0.000000,,2013-04-12 04:00:00,
2013-04-12 00:43:00,32.0,31.0,-100.00,ENE,67,10.0,-999.0,96,-99.99,,,-99.99,0.000000,,2013-04-12 04:43:00,
2013-04-12 00:53:00,32.0,31.0,-100.00,ENE,67,10.0,-999.0,96,-99.99,,,-99.99,0.000000,,2013-04-12 04:53:00,
2013-04-12 02:00:00,32.0,31.0,-100.00,ENE,67,10.0,-999.0,95,-99.99,,,-99.99,0.000000,,2013-04-12 06:00:00,
2013-04-12 02:42:00,32.0,31.0,-100.00,ENE,67,10.0,-999.0,95,-99.99,,,-99.99,0.000000,,2013-04-12 06:42:00,
2013-04-12 02:52:00,32.0,31.0,-100.00,ENE,67,10.0,-999.0,95,-99.99,,,-99.99,0.000000,,2013-04-12 06:52:00,
2013-04-12 04:00:00,32.0,31.0,-100.00,ENE,67,8.0,-999.0,95,-99.99,,,-99.99,0.000000,,2013-04-12 08:00:00,
2013-04-12 04:43:00,32.0,31.0,-100.00,ENE,67,8.0,-999.0,95,-99.99,,,-99.99,0.000000,,2013-04-12 08:43:00,
2013-04-12 04:53:00,32.0,31.0,-100.00,ENE,67,8.0,-999.0,95,-99.99,,,-99.99,0.000000,,2013-04-12 08:53:00,
2013-04-12 05:00:00,32.0,31.0,-100.00,ENE,67,7.0,-999.0,96,-99.99,,,-99.99,0.000000,,2013-04-12 09:00:00,
2013-04-12 05:44:00,32.0,31.0,-100.00,ENE,67,7.0,-999.0,96,-99.99,,,-99.99,0.000000,,2013-04-12 09:44:00,
2013-04-12 05:53:00,32.0,31.0,-100.00,ENE,67,7.0,-999.0,96,-99.99,,,-99.99,0.000000,,2013-04-12 09:53:00,
2013-04-12 08:00:00,32.0,31.0,-100.00,ENE,67,4.0,-999.0,97,-99.99,,,-99.99,11.600000,,2013-04-12 12:00:00,
2013-04-12 08:43:00,32.0,31.0,-100.00,ENE,67,4.0,-999.0,97,-99.99,,,-99.99,11.600000,,2013-04-12 12:43:00,
2013-04-12 08:54:00,32.0,31.0,-100.00,ENE,67,4.0,-999.0,97,-99.99,,,-99.99,11.600000,,2013-04-12 12:54:00,
2013-04-12 09:00:00,32.0,31.0,-100.00,East,90,4.0,-999.0,98,-99.99,,,-99.99,19.719999,,2013-04-12 13:00:00,
2013-04-12 09:43:00,32.0,31.0,-100.00,East,90,4.0,-999.0,98,-99.99,,,-99.99,19.719999,,2013-04-12 13:43:00,
2013-04-12 09:53:00,32.0,31.0,-100.00,East,90,4.0,-999.0,98,-99.99,,,-99.99,19.719999,,2013-04-12 13:53:00,
2013-04-12 10:00:00,32.0,32.0,-100.00,ESE,112,3.0,-999.0,98,0.02,,,-99.99,40.599998,,2013-04-12 14:00:00,
2013-04-12 10:43:00,32.0,32.0,-100.00,ESE,112,3.0,-999.0,98,0.02,,,-99.99,40.599998,,2013-04-12 14:43:00,
2013-04-12 10:54:00,32.0,32.0,-100.00,ESE,112,3.0,-999.0,98,0.02,,,-99.99,40.599998,,2013-04-12 14:54:00,
2013-04-12 11:00:00,33.0,32.0,-100.00,SSE,157,4.0,-999.0,98,0.05,,,-99.99,97.440002,,2013-04-12 15:00:00,
2013-04-12 11:43:00,33.0,32.0,-100.00,SSE,157,4.0,-999.0,98,0.05,,,-99.99,97.440002,,2013-04-12 15:43:00,
2013-04-12 11:53:00,33.0,32.0,-100.00,SSE,157,4.0,-999.0,98,0.05,,,-99.99,97.440002,,2013-04-12 15:53:00,
2013-04-12 12:00:00,34.0,34.0,-100.00,South,180,3.0,-999.0,98,0.01,,,-99.99,182.119995,,2013-04-12 16:00:00,
2013-04-12 12:43:00,34.0,34.0,-100.00,South,180,3.0,-999.0,98,0.01,,,-99.99,182.119995,,2013-04-12 16:43:00,
2013-04-12 12:53:00,34.0,34.0,-100.00,South,180,3.0,-999.0,98,0.01,,,-99.99,182.119995,,2013-04-12 16:53:00,
2013-04-12 13:00:00,37.0,36.0,-100.00,SW,225,8.0,-999.0,95,-99.99,,,-99.99,238.960007,,2013-04-12 17:00:00,
2013-04-12 13:47:00,37.0,36.0,-100.00,SW,225,8.0,-999.0,95,-99.99,,,-99.99,238.960007,,2013-04-12 17:47:00,
2013-04-12 14:00:00,39.0,34.0,-100.00,SW,225,12.0,-999.0,81,-99.99,,,-99.99,211.119995,,2013-04-12 18:00:00,
2013-04-12 15:00:00,39.0,34.0,-100.00,SW,225,12.0,-999.0,82,-99.99,,,-99.99,193.720001,,2013-04-12 19:00:00,
2013-04-12 15:43:00,39.0,34.0,-100.00,SW,225,12.0,-999.0,82,-99.99,,,-99.99,193.720001,,2013-04-12 19:43:00,
2013-04-12 15:53:00,39.0,34.0,-100.00,SW,225,12.0,-999.0,82,-99.99,,,-99.99,193.720001,,2013-04-12 19:53:00,
2013-04-12 16:00:00,38.0,35.0,-100.00,SW,225,12.0,-999.0,89,-99.99,,,-99.99,100.919998,,2013-04-12 20:00:00,
2013-04-12 16:43:00,38.0,35.0,-100.00,SW,225,12.0,-999.0,89,-99.99,,,-99.99,100.919998,,2013-04-12 20:43:00,
2013-04-12 16:52:00,38.0,35.0,-100.00,SW,225,12.0,-999.0,89,-99.99,,,-99.99,100.919998,,2013-04-12 20:52:00,
2013-04-12 17:00:00,38.0,36.0,-100.00,SW,225,11.0,-999.0,93,-99.99,,,-99.99,99.760002,,2013-04-12 21:00:00,
2013-04-12 17:43:00,38.0,36.0,-100.00,SW,225,11.0,-999.0,93,-99.99,,,-99.99,99.760002,,2013-04-12 21:43:00,
2013-04-12 17:53:00,38.0,36.0,-100.00,SW,225,11.0,-999.0,93,-99.99,,,-99.99,99.760002,,2013-04-12 21:53:00,
2013-04-12 18:00:00,37.0,36.0,-100.00,SW,225,11.0,-999.0,95,-99.99,,,-99.99,49.880001,,2013-04-12 22:00:00,
2013-04-12 18:43:00,37.0,36.0,-100.00,SW,225,11.0,-999.0,95,-99.99,,,-99.99,49.880001,,2013-04-12 22:43:00,
2013-04-12 18:52:00,37.0,36.0,-100.00,SW,225,11.0,-999.0,95,-99.99,,,-99.99,49.880001,,2013-04-12 22:52:00,
2013-04-12 19:00:00,38.0,36.0,-100.00,SW,225,10.0,-999.0,95,-99.99,,,-99.99,32.480000,,2013-04-12 23:00:00,
2013-04-12 19:42:00,38.0,36.0,-100.00,SW,225,10.0,-999.0,95,-99.99,,,-99.99,32.480000,,2013-04-12 23:42:00,
2013-04-12 19:52:00,38.0,36.0,-100.00,SW,225,10.0,-999.0,95,-99.99,,,-99.99,32.480000,,2013-04-12 23:52:00,
2013-04-12 23:00:00,35.0,34.0,-100.00,WSW,247,7.0,-999.0,94,-99.99,,,-99.99,0.000000,,2013-04-13 03:00:00,
2013-04-12 23:43:00,35.0,34.0,-100.00,WSW,247,7.0,-999.0,94,-99.99,,,-99.99,0.000000,,2013-04-13 03:43:00,
2013-04-12 23:54:00,35.0,34.0,-100.00,WSW,247,7.0,-999.0,94,-99.99,,,-99.99,0.000000,,2013-04-13 03:54:00,